AirNav   Air Wisconsin Up To $57,000 Bonus
 
 1208 users online  

13PS St Luke's/Pennstar Flight Center Heliport
Nazareth, Pennsylvania, USA

GOING TO NAZARETH?


FAA INFORMATION EFFECTIVE 07 NOVEMBER 2019

Location

FAA Identifier: 13PS
Lat/Long: 40-44-21.0000N 075-20-02.0000W
40-44.350000N 075-20.033333W
40.7391667,-75.3338889
(estimated)
Elevation: 488 ft. / 149 m (estimated)
Time zone: UTC -5 (UTC -4 during Daylight Saving Time)
Zip code: 18064

Heliport Operations

Heliport use: Private use, MEDICAL.
Activation date: 08/2004
Control tower: no
ARTCC: NEW YORK CENTER
FSS: NEW YORK FLIGHT SERVICE STATION
Attendance: UNATNDD
Wind indicator: lighted
Segmented circle: no
Lights: ACTIVATE PERIMETER LGTS - 123.05
Beacon: white-green-yellow (heliport)
Operates sunset to sunrise.

Heliport Communications

WX ASOS at ABE (7 nm SW): PHONE 610-266-3579
WX AWOS-3 at XLL (12 nm SW): 127.875 (610-231-3111)
WX AWOS-3 at UKT (18 nm S): 119.475 (215-538-7610)
WX AWOS-3PT at 22N (20 nm W): 119.350 (570-386-3423)

Nearby radio navigation aids

VOR radial/distance  VOR name  Freq  Var
FJCr092/5.5ALLENTOWN VORTAC117.5010W
ETXr068/18.5EAST TEXAS VOR/DME110.2009W
BWZr272/23.5BROADWAY VOR/DME114.2011W
STWr245/26.1STILLWATER VOR/DME109.6011W
SBJr299/28.5SOLBERG VOR/DME112.9010W
PTWr027/32.7POTTSTOWN VORTAC116.5009W
ARDr336/35.0YARDLEY VOR/DME108.2010W
LVZr163/35.8WILKES-BARRE VORTAC111.6010W

 
NDB name  Hdg/Dist  Freq  Var  ID
AMBLER009/36.927512WING .. -. --.

Heliport Services

Fuel available: A

Runway Information

Helipad H1

Dimensions: 80 x 80 ft. / 24 x 24 m
Surface: concrete
Runway edge lights: PERI
Latitude: 40-44.350000N
Longitude: 075-20.033333W
Elevation: 488.0 ft.
Traffic pattern: leftleft

Heliport Ownership and Management from official FAA records

Ownership: Privately-owned
Owner: ST. LUKE'S HOSPITAL NETWORK
500 GRACEDALE AVE.
NAZARETH, PA 18064
Phone 800-543-7827
Manager: PENNSTAR FLIGHT
500 GRACEDALE AVE.
NAZARETH, PA 18064
Phone 800-543-7827

Heliport Operational Statistics

Aircraft based on the field: 4
Multi engine airplanes: 2
Helicopters: 2
    

Additional Remarks

A52-H1 26 FT BLDG 86 FT NORTH; 150 FT TWR 325 FT NORTH; RAISING TERRAIN NORTH OF LANDING PAD.
FOR CD CTC ALLENTOWN APCH AT 800-728-6322.

Instrument Procedures

There are no published instrument procedures at 13PS.

Some nearby airports with instrument procedures:

N43 - Braden Airpark (4 nm E)
KABE - Lehigh Valley International Airport (7 nm SW)
KXLL - Allentown Queen City Municipal Airport (12 nm SW)
N85 - Alexandria Airport (17 nm SE)
KUKT - Quakertown Airport (18 nm S)
N40 - Sky Manor Airport (19 nm SE)
N53 - Stroudsburg-Pocono Airport (19 nm NE)
22N - Jake Arner Memorial Airport (20 nm W)
 
Loc | Ops | Rwys | IFR | FBO | Links
Com | Nav | Svcs | Stats | Notes
Area around 13PS (St Luke's/Pennstar Flight Center Heliport)
 
Road maps at: MapQuest Bing Google
 
Aerial photo
No photo
 
Sectional chart

 
Airport distance calculator
Flying to St Luke's/Pennstar Flight Center Heliport? Find the distance to fly.

From to 13PS

Sunrise and sunset
Times for 15-Nov-2019
 Local
(UTC-5)
 Zulu
(UTC)
Morning civil twilight06:2011:20
Sunrise06:4911:49
Sunset16:4321:43
Evening civil twilight17:1222:12

Current date and time
Zulu (UTC)  15-Nov-2019 20:48:32
Local (UTC-5)  15-Nov-2019 15:48:32
 
METAR
KABE 
8nm SW 
151951Z 26008KT 10SM CLR 11/M06 A3015 RMK AO2 SLP212 T01111061
KXLL 
12nm SW 
152035Z AUTO 25005KT 10SM CLR 09/M04 A3018 RMK AO2
KUKT 
18nm S 
152040Z AUTO 27006KT 10SM CLR 09/M06 A3017 RMK A01
K22N 
20nm W 
152035Z AUTO 28006KT 10SM CLR 09/M06 A3017 RMK AO2
TAF
KABE 
8nm SW 
151739Z 1518/1618 27007KT P6SM SCT250 FM152300 30005KT P6SM SCT250 FM160500 35007KT P6SM FEW250 FM160800 01008KT P6SM FEW200 FM161200 04008KT P6SM FEW250
NOTAMs
Click for the latest NOTAMs
NOTAMs are issued by the DoD/FAA and will open in a separate window not controlled by AirNav.

 

 
 

Would you like to see your business listed on this page?

 If your business provides an interesting product or service to pilots, flight crews, aircraft, or users of the St Luke's/Pennstar Flight Center Heliport, you should consider listing it here.  To start the listing process, click on the button below
 
Add a business
 

Other Pages about St Luke's/Pennstar Flight Center Heliport

Update a link
 
Copyright © AirNav, LLC. All rights reserved. Privacy Policy  Contact